Time;durP1;ratioP1;P1;durP2;ratioP2;P2;SDS_P1;SDS_P2;PMS_P1;PMS_P2;Temp;Humidity;BMP_temperature;BMP_pressure;BME280_temperature;BME280_humidity;BME280_pressure;Samples;Min_cycle;Max_cycle;Signal;HPM_P1;HPM_P2
2021/04/15 00:01:12;;;;;;;4.45;1.63;;;4.00;86.70;;;;;;5031159;28;20044;-51
2021/04/15 00:03:38;;;;;;;4.68;1.50;;;3.90;87.10;;;;;;5029103;28;20057;-50
2021/04/15 00:06:13;;;;;;;3.83;1.42;;;3.90;87.30;;;;;;5029600;28;20551;-51
2021/04/15 00:08:40;;;;;;;3.70;1.65;;;3.90;87.00;;;;;;5017724;28;20521;-48
2021/04/15 00:11:06;;;;;;;2.55;1.33;;;3.90;86.80;;;;;;5032065;28;20040;-47
2021/04/15 00:13:44;;;;;;;5.57;1.60;;;3.80;87.00;;;;;;5030602;28;20493;-52
2021/04/15 00:16:10;;;;;;;3.53;1.60;;;3.80;87.00;;;;;;5031256;28;20421;-51
2021/04/15 00:18:36;;;;;;;5.78;1.60;;;3.70;87.10;;;;;;5030628;28;20033;-51
2021/04/15 00:21:03;;;;;;;4.05;1.40;;;3.70;87.50;;;;;;5031753;28;20050;-51
2021/04/15 00:23:30;;;;;;;5.07;1.50;;;3.70;87.40;;;;;;5031026;28;20103;-51
2021/04/15 00:25:56;;;;;;;3.40;1.23;;;3.70;87.30;;;;;;5029797;28;20096;-49
2021/04/15 00:28:22;;;;;;;5.45;1.50;;;3.70;87.20;;;;;;5013709;28;20509;-48
2021/04/15 00:30:49;;;;;;;3.60;1.55;;;3.70;87.10;;;;;;5030983;28;20440;-49
2021/04/15 00:33:15;;;;;;;5.38;1.30;;;3.70;87.10;;;;;;5030992;28;20091;-48
2021/04/15 00:35:42;;;;;;;4.82;1.80;;;3.70;87.50;;;;;;5029706;28;20456;-51
2021/04/15 00:38:09;;;;;;;3.72;1.58;;;3.70;87.40;;;;;;5030842;28;20124;-50
2021/04/15 00:40:37;;;;;;;5.65;1.50;;;3.70;87.30;;;;;;5030871;28;20065;-54
2021/04/15 00:43:03;;;;;;;4.32;1.70;;;3.60;87.60;;;;;;5026910;28;20052;-55
2021/04/15 00:45:32;;;;;;;5.00;1.70;;;3.60;87.30;;;;;;5030760;28;20041;-54
2021/04/15 00:48:37;;;;;;;4.75;1.50;;;3.60;87.10;;;;;;5030195;28;20481;-50
2021/04/15 00:51:13;;;;;;;5.35;1.50;;;3.50;87.70;;;;;;5030484;28;20048;-52
2021/04/15 00:53:51;;;;;;;3.67;1.50;;;3.50;87.90;;;;;;5031291;28;20041;-53
2021/04/15 00:56:17;;;;;;;2.83;1.50;;;3.50;87.90;;;;;;5030522;28;20048;-55
2021/04/15 00:58:44;;;;;;;4.50;1.48;;;3.50;88.10;;;;;;5030277;28;20045;-52
2021/04/15 01:01:10;;;;;;;6.60;1.75;;;3.50;89.00;;;;;;5030069;28;20123;-51
2021/04/15 01:03:37;;;;;;;3.50;1.70;;;3.50;88.40;;;;;;5029763;28;20463;-52
2021/04/15 01:06:05;;;;;;;5.00;1.75;;;3.50;88.40;;;;;;5025223;28;20049;-54
2021/04/15 01:08:31;;;;;;;3.67;1.45;;;3.40;88.50;;;;;;5030765;28;20049;-53
2021/04/15 01:10:58;;;;;;;5.13;2.03;;;3.40;88.70;;;;;;5031028;28;20042;-52
2021/04/15 01:14:18;;;;;;;5.28;1.40;;;3.40;89.10;;;;;;5030241;28;20044;-54
2021/04/15 01:16:59;;;;;;;3.92;1.60;;;3.40;88.60;;;;;;5002944;28;20038;-52
2021/04/15 01:20:08;;;;;;;3.58;1.60;;;3.40;89.00;;;;;;5019355;28;20045;-52
2021/04/15 01:22:52;;;;;;;7.88;2.00;;;3.40;88.70;;;;;;5022805;28;20093;-51
2021/04/15 01:25:23;;;;;;;5.93;1.65;;;3.50;88.70;;;;;;5020997;28;20184;-52
2021/04/15 01:27:52;;;;;;;5.90;1.80;;;3.50;88.80;;;;;;5029445;28;20114;-51
2021/04/15 01:30:24;;;;;;;3.35;1.63;;;3.40;88.80;;;;;;5023673;28;20518;-49
2021/04/15 01:32:52;;;;;;;5.20;1.92;;;3.40;89.50;;;;;;5022531;28;20069;-51
2021/04/15 01:35:29;;;;;;;4.68;1.90;;;3.40;89.60;;;;;;5029185;28;20071;-52
2021/04/15 01:38:10;;;;;;;4.68;1.55;;;3.40;89.40;;;;;;5028925;28;20037;-51
2021/04/15 01:41:06;;;;;;;4.75;1.73;;;3.40;89.50;;;;;;5030519;28;20541;-53
2021/04/15 01:43:41;;;;;;;8.88;2.00;;;3.40;90.00;;;;;;5019517;28;20073;-51
2021/04/15 01:46:08;;;;;;;4.28;1.70;;;3.50;89.40;;;;;;5029309;28;20041;-50
2021/04/15 01:48:41;;;;;;;4.47;1.63;;;3.50;89.70;;;;;;5030389;28;20045;-51
2021/04/15 01:51:21;;;;;;;5.05;2.05;;;3.60;89.90;;;;;;5029788;28;20049;-53
2021/04/15 01:53:49;;;;;;;3.33;1.80;;;3.70;90.00;;;;;;5019604;28;20037;-49
2021/04/15 01:56:23;;;;;;;5.00;1.88;;;3.70;90.00;;;;;;5028572;28;20083;-53
2021/04/15 01:59:01;;;;;;;5.60;1.90;;;3.60;90.00;;;;;;5030502;28;20049;-49
2021/04/15 02:01:31;;;;;;;6.43;2.05;;;3.60;90.20;;;;;;5023431;28;20049;-52
2021/04/15 02:04:04;;;;;;;3.85;1.90;;;3.60;90.20;;;;;;5030584;28;20051;-52
2021/04/15 02:06:34;;;;;;;4.50;2.05;;;3.70;90.10;;;;;;5020713;28;20501;-50
2021/04/15 02:09:05;;;;;;;4.80;2.05;;;3.60;90.10;;;;;;5030066;28;20046;-51
2021/04/15 02:12:05;;;;;;;4.20;1.85;;;3.60;90.40;;;;;;5028531;28;20033;-52
2021/04/15 02:15:18;;;;;;;7.00;1.75;;;3.50;90.20;;;;;;5032830;28;20041;-49
2021/04/15 02:17:44;;;;;;;4.32;1.85;;;3.50;90.40;;;;;;5031916;28;20485;-51
2021/04/15 02:20:23;;;;;;;3.38;1.98;;;3.50;90.40;;;;;;5026778;28;20049;-51
2021/04/15 02:23:08;;;;;;;6.05;2.10;;;3.60;90.60;;;;;;5029364;28;20044;-49
2021/04/15 02:25:41;;;;;;;4.95;2.03;;;3.50;90.50;;;;;;5031902;28;20071;-52
2021/04/15 02:28:17;;;;;;;5.00;2.45;;;3.50;90.50;;;;;;5021042;28;20041;-50
2021/04/15 02:31:10;;;;;;;4.13;2.22;;;3.50;90.60;;;;;;5033020;28;20060;-51
2021/04/15 02:33:43;;;;;;;4.57;2.30;;;3.50;90.70;;;;;;5033488;28;20048;-49
2021/04/15 02:36:10;;;;;;;4.63;2.33;;;3.50;90.70;;;;;;5031204;28;20472;-52
2021/04/15 02:38:54;;;;;;;5.20;2.78;;;3.50;90.70;;;;;;5021089;28;20559;-48
2021/04/15 02:41:26;;;;;;;7.18;2.97;;;3.60;90.70;;;;;;5032627;28;20044;-50
2021/04/15 02:44:04;;;;;;;5.65;2.58;;;3.50;90.80;;;;;;5031992;28;20045;-52
2021/04/15 02:46:54;;;;;;;7.40;3.08;;;3.50;90.80;;;;;;5024997;28;20380;-50
2021/04/15 02:49:24;;;;;;;4.97;2.50;;;3.40;90.90;;;;;;5028669;28;20498;-52
2021/04/15 02:51:54;;;;;;;4.43;2.35;;;3.40;90.90;;;;;;5033569;28;20056;-50
2021/04/15 02:54:27;;;;;;;6.97;2.80;;;3.50;91.10;;;;;;5032623;28;20129;-52
2021/04/15 02:56:59;;;;;;;4.80;2.42;;;3.50;91.00;;;;;;5032862;28;20364;-50
2021/04/15 02:59:39;;;;;;;6.15;2.92;;;3.50;91.20;;;;;;5032247;28;20456;-49
2021/04/15 03:02:08;;;;;;;7.25;3.30;;;3.60;91.10;;;;;;5025972;28;20520;-50
2021/04/15 03:04:36;;;;;;;5.78;2.92;;;3.60;90.90;;;;;;5021465;28;20136;-50
2021/04/15 03:07:05;;;;;;;6.15;2.78;;;3.50;91.00;;;;;;5032496;28;20548;-51
2021/04/15 03:09:35;;;;;;;6.97;2.97;;;3.50;91.00;;;;;;5032470;28;20414;-49
2021/04/15 03:12:25;;;;;;;5.35;2.55;;;3.50;90.90;;;;;;5032467;28;20067;-52
2021/04/15 03:15:07;;;;;;;5.75;2.75;;;3.40;91.00;;;;;;5032320;28;20430;-51
2021/04/15 03:17:35;;;;;;;6.47;3.42;;;3.40;91.00;;;;;;5032135;28;20485;-50
2021/04/15 03:20:05;;;;;;;7.03;2.90;;;3.40;91.10;;;;;;5026244;28;20118;-51
2021/04/15 03:22:50;;;;;;;5.75;3.22;;;3.40;91.20;;;;;;5032730;28;20516;-50
2021/04/15 03:25:17;;;;;;;5.70;3.25;;;3.40;91.10;;;;;;5031151;28;20180;-51
2021/04/15 03:27:53;;;;;;;7.30;3.33;;;3.40;91.20;;;;;;5032116;28;20034;-49
2021/04/15 03:30:26;;;;;;;5.28;2.90;;;3.40;91.10;;;;;;5022714;28;20509;-51
2021/04/15 03:33:02;;;;;;;7.22;3.40;;;3.30;91.00;;;;;;5032270;28;20412;-53
2021/04/15 03:35:52;;;;;;;7.30;2.78;;;3.30;91.00;;;;;;5026491;28;20172;-51
2021/04/15 03:38:26;;;;;;;7.85;3.10;;;3.20;91.20;;;;;;5022608;28;20053;-49
2021/04/15 03:41:03;;;;;;;7.00;3.45;;;3.20;91.10;;;;;;5019925;28;20034;-51
2021/04/15 03:43:33;;;;;;;7.22;3.35;;;3.20;91.20;;;;;;5020967;28;20176;-50
2021/04/15 03:46:05;;;;;;;7.50;3.63;;;3.10;91.30;;;;;;5016457;28;20038;-51
2021/04/15 03:48:43;;;;;;;6.40;3.47;;;3.10;91.30;;;;;;5023267;28;20046;-50
2021/04/15 03:51:13;;;;;;;5.13;2.92;;;3.10;91.40;;;;;;5029703;28;20073;-51
2021/04/15 03:53:47;;;;;;;6.80;3.47;;;3.10;91.30;;;;;;5021497;28;20042;-50
2021/04/15 03:56:27;;;;;;;7.45;2.80;;;3.00;91.10;;;;;;5011933;28;20585;-51
2021/04/15 03:58:59;;;;;;;3.67;2.20;;;3.00;91.10;;;;;;5012349;28;20058;-51
2021/04/15 04:01:31;;;;;;;3.15;1.95;;;2.90;90.60;;;;;;5030469;28;20102;-52
2021/04/15 04:04:09;;;;;;;5.53;2.05;;;2.80;90.20;;;;;;5027242;28;20080;-51
2021/04/15 04:06:41;;;;;;;5.45;1.80;;;2.70;90.20;;;;;;5031258;28;20041;-53
2021/04/15 04:09:28;;;;;;;3.78;2.20;;;2.50;90.30;;;;;;5029138;28;20076;-51
2021/04/15 04:11:56;;;;;;;3.17;2.13;;;2.50;90.40;;;;;;5024976;28;20465;-51
2021/04/15 04:14:29;;;;;;;7.38;2.58;;;2.40;90.60;;;;;;5028297;28;20065;-52
2021/04/15 04:17:04;;;;;;;3.60;2.42;;;2.40;90.70;;;;;;5025394;28;20385;-50
2021/04/15 04:19:54;;;;;;;5.57;2.60;;;2.30;90.80;;;;;;5027413;28;20465;-50
2021/04/15 04:22:32;;;;;;;5.25;2.50;;;2.30;90.80;;;;;;5027221;28;20049;-51
2021/04/15 04:25:13;;;;;;;3.88;2.40;;;2.30;90.80;;;;;;5028224;28;20038;-50
2021/04/15 04:27:53;;;;;;;4.32;2.55;;;2.30;90.90;;;;;;5027116;28;20049;-50
2021/04/15 04:30:28;;;;;;;5.35;2.50;;;2.20;90.80;;;;;;5027569;28;20091;-51
2021/04/15 04:33:01;;;;;;;6.45;2.90;;;2.10;90.80;;;;;;5023344;28;20112;-50
2021/04/15 04:35:31;;;;;;;7.78;3.22;;;2.10;90.80;;;;;;5018882;28;20041;-51
2021/04/15 04:38:03;;;;;;;6.15;2.70;;;2.10;90.90;;;;;;5026923;28;20033;-48
2021/04/15 04:40:37;;;;;;;6.70;2.80;;;2.00;90.80;;;;;;5028207;28;20088;-51
2021/04/15 04:43:09;;;;;;;6.93;3.30;;;2.00;90.80;;;;;;5030462;28;20413;-49
2021/04/15 04:45:36;;;;;;;5.40;2.90;;;2.00;90.80;;;;;;5030999;28;20045;-51
2021/04/15 04:48:07;;;;;;;5.20;2.70;;;2.00;90.80;;;;;;5029970;28;20049;-53
2021/04/15 04:51:03;;;;;;;5.97;2.90;;;2.00;90.90;;;;;;5026193;28;20041;-50
2021/04/15 04:53:37;;;;;;;4.82;2.80;;;2.00;90.80;;;;;;5026866;28;20096;-48
2021/04/15 04:56:21;;;;;;;8.45;3.38;;;2.00;90.80;;;;;;5030404;28;20114;-53
2021/04/15 04:58:55;;;;;;;7.50;3.80;;;2.00;90.90;;;;;;5020748;28;20048;-50
2021/04/15 05:01:23;;;;;;;7.57;4.22;;;2.00;90.90;;;;;;5027790;28;20107;-51
2021/04/15 05:04:00;;;;;;;9.10;4.85;;;2.10;91.20;;;;;;5029100;28;20064;-51
2021/04/15 05:06:30;;;;;;;9.57;4.65;;;2.20;91.40;;;;;;5033948;22;20124;-46
2021/04/15 05:09:01;;;;;;;8.80;4.82;;;2.20;91.50;;;;;;4999185;28;20043;-47
2021/04/15 05:11:32;;;;;;;9.50;4.85;;;2.30;91.60;;;;;;5002911;28;20046;-48
2021/04/15 05:13:59;;;;;;;10.23;5.25;;;2.40;91.80;;;;;;4994022;28;20093;-48
2021/04/15 05:16:43;;;;;;;10.52;4.90;;;2.50;91.80;;;;;;5006780;28;20478;-48
2021/04/15 05:19:09;;;;;;;11.98;5.35;;;2.50;91.80;;;;;;5000135;28;20050;-51
2021/04/15 05:21:37;;;;;;;14.25;5.60;;;2.50;91.90;;;;;;5006850;28;20049;-48
2021/04/15 05:24:31;;;;;;;12.07;5.70;;;2.50;91.90;;;;;;5007709;28;20041;-48
2021/04/15 05:27:00;;;;;;;13.73;5.68;;;2.60;92.00;;;;;;5001643;28;20069;-52
2021/04/15 05:29:38;;;;;;;9.82;4.78;;;2.60;92.00;;;;;;5004287;28;20045;-48
2021/04/15 05:32:05;;;;;;;12.35;5.40;;;2.80;91.90;;;;;;5009363;28;20042;-48
2021/04/15 05:34:47;;;;;;;13.55;5.53;;;3.00;91.60;;;;;;5010562;28;20069;-50
2021/04/15 05:37:17;;;;;;;12.25;5.22;;;3.10;91.30;;;;;;5009371;28;20034;-49
2021/04/15 05:39:43;;;;;;;13.32;5.20;;;3.20;91.10;;;;;;5008066;28;20072;-52
2021/04/15 05:42:27;;;;;;;11.75;5.90;;;3.40;90.90;;;;;;4999173;28;20413;-49
2021/04/15 05:45:00;;;;;;;11.88;5.50;;;3.60;90.70;;;;;;5009611;28;20046;-48
2021/04/15 05:47:29;;;;;;;10.07;5.18;;;3.90;90.20;;;;;;5002361;28;20187;-54
2021/04/15 05:50:06;;;;;;;9.32;5.43;;;4.20;89.30;;;;;;5008587;28;20034;-49
2021/04/15 05:52:46;;;;;;;10.70;5.43;;;4.60;87.90;;;;;;5013644;28;20049;-49
2021/04/15 05:55:18;;;;;;;12.25;5.35;;;5.10;86.10;;;;;;5004529;28;20080;-49
2021/04/15 05:57:51;;;;;;;10.63;5.20;;;5.20;84.80;;;;;;5001816;28;20446;-49
2021/04/15 06:00:20;;;;;;;9.50;5.45;;;5.20;84.30;;;;;;5019860;28;20042;-51
2021/04/15 06:03:33;;;;;;;10.93;5.30;;;5.20;84.20;;;;;;4998976;28;20500;-50
2021/04/15 06:06:12;;;;;;;12.90;5.80;;;5.20;84.60;;;;;;5001751;28;20042;-51
2021/04/15 06:08:41;;;;;;;9.98;5.80;;;5.10;85.10;;;;;;5001799;28;20115;-51
2021/04/15 06:11:33;;;;;;;10.23;5.20;;;5.20;85.00;;;;;;4999305;28;20101;-49
2021/04/15 06:14:04;;;;;;;9.10;4.93;;;5.70;82.90;;;;;;5006666;28;20073;-48
2021/04/15 06:16:36;;;;;;;12.77;5.50;;;6.00;81.30;;;;;;5000550;28;20292;-50
2021/04/15 06:19:19;;;;;;;10.80;5.57;;;6.20;81.40;;;;;;4996334;28;20113;-48
2021/04/15 06:21:54;;;;;;;11.65;5.28;;;6.10;80.40;;;;;;4999875;28;20340;-50
2021/04/15 06:24:27;;;;;;;9.68;4.60;;;5.80;81.60;;;;;;4998237;28;20129;-48
2021/04/15 06:26:59;;;;;;;10.18;5.25;;;5.80;82.40;;;;;;5000346;28;20038;-48
2021/04/15 06:29:55;;;;;;;10.93;4.63;;;5.70;83.10;;;;;;5010893;28;20096;-49
2021/04/15 06:32:31;;;;;;;11.55;4.40;;;5.70;82.20;;;;;;5008283;28;20042;-49
2021/04/15 06:34:57;;;;;;;9.98;4.70;;;5.70;83.10;;;;;;5010931;28;20065;-52
2021/04/15 06:37:35;;;;;;;11.75;4.88;;;5.60;83.50;;;;;;5011254;28;20030;-49
2021/04/15 06:40:38;;;;;;;11.20;5.07;;;5.60;84.00;;;;;;5010522;28;20041;-49
2021/04/15 06:43:36;;;;;;;10.88;5.03;;;5.70;83.90;;;;;;5008148;28;20221;-51
2021/04/15 06:46:16;;;;;;;11.00;4.40;;;5.70;83.60;;;;;;5004695;28;20077;-49
2021/04/15 06:49:06;;;;;;;8.50;4.68;;;5.80;84.00;;;;;;5004969;28;20042;-49
2021/04/15 06:52:05;;;;;;;11.45;4.82;;;5.90;83.70;;;;;;5007447;28;20049;-51
2021/04/15 06:54:37;;;;;;;11.20;4.47;;;5.90;83.10;;;;;;5002818;28;20129;-49
2021/04/15 06:57:26;;;;;;;11.13;5.05;;;6.00;82.60;;;;;;5010317;28;20041;-50
2021/04/15 07:00:12;;;;;;;12.40;4.57;;;6.10;82.00;;;;;;5005536;28;20425;-49
2021/04/15 07:02:54;;;;;;;13.65;5.38;;;6.20;81.90;;;;;;5007305;28;20058;-49
2021/04/15 07:05:26;;;;;;;16.23;5.05;;;6.20;81.40;;;;;;5013422;28;20072;-49
2021/04/15 07:08:24;;;;;;;10.48;4.32;;;6.30;82.00;;;;;;5009876;28;21162;-48
2021/04/15 07:11:28;;;;;;;9.68;4.00;;;6.30;81.80;;;;;;5007583;28;20049;-48
2021/04/15 07:14:22;;;;;;;10.90;3.85;;;6.40;81.90;;;;;;5010141;28;20044;-49
2021/04/15 07:17:15;;;;;;;9.52;3.88;;;6.50;80.70;;;;;;4999834;28;20453;-52
2021/04/15 07:20:18;;;;;;;13.30;4.40;;;6.40;81.00;;;;;;4996143;28;20050;-50
2021/04/15 07:23:18;;;;;;;11.98;4.25;;;6.50;79.30;;;;;;5003160;28;20046;-49
2021/04/15 07:26:09;;;;;;;10.63;4.18;;;6.60;80.00;;;;;;5003835;28;20053;-49
2021/04/15 07:29:04;;;;;;;9.85;3.60;;;6.70;79.60;;;;;;5012466;28;20350;-48
2021/04/15 07:31:44;;;;;;;10.43;3.80;;;6.80;79.60;;;;;;5003568;28;20050;-56
2021/04/15 07:34:10;;;;;;;11.20;3.78;;;6.90;77.40;;;;;;5004308;28;20490;-52
2021/04/15 07:36:59;;;;;;;13.20;3.22;;;7.00;78.40;;;;;;5001266;28;20049;-53
2021/04/15 07:39:47;;;;;;;10.88;3.90;;;7.10;77.70;;;;;;5011255;28;20064;-51
2021/04/15 07:42:33;;;;;;;15.50;4.20;;;7.30;78.30;;;;;;5004560;28;20418;-53
2021/04/15 07:45:07;;;;;;;13.45;4.00;;;7.40;77.30;;;;;;5004899;28;20058;-51
2021/04/15 07:48:02;;;;;;;11.55;3.65;;;7.50;77.20;;;;;;5003883;28;20100;-50
2021/04/15 07:51:12;;;;;;;11.35;3.75;;;7.60;75.60;;;;;;5018541;28;20445;-53
2021/04/15 07:53:53;;;;;;;13.00;3.30;;;7.80;76.40;;;;;;5007055;28;20080;-52
2021/04/15 07:56:57;;;;;;;10.00;3.85;;;8.10;75.10;;;;;;5009697;28;20421;-50
2021/04/15 07:59:26;;;;;;;13.60;4.10;;;8.30;73.50;;;;;;5010879;28;20060;-52
2021/04/15 08:01:55;;;;;;;13.82;4.35;;;8.30;71.90;;;;;;5010043;28;20553;-51
2021/04/15 08:05:01;;;;;;;10.18;3.60;;;8.50;70.70;;;;;;5009665;28;20069;-55
2021/04/15 08:07:46;;;;;;;8.75;3.40;;;8.30;69.80;;;;;;5011345;28;20042;-51
2021/04/15 08:10:22;;;;;;;10.93;3.80;;;8.10;71.10;;;;;;5005431;28;20042;-52
2021/04/15 08:12:51;;;;;;;12.13;5.18;;;8.10;71.00;;;;;;5012062;28;20100;-50
2021/04/15 08:15:38;;;;;;;11.32;3.75;;;8.20;72.80;;;;;;5004853;28;20111;-50
2021/04/15 08:18:31;;;;;;;7.97;3.80;;;8.30;69.60;;;;;;4998128;28;20077;-53
2021/04/15 08:21:27;;;;;;;13.52;4.10;;;8.20;70.00;;;;;;5000052;28;20046;-52
2021/04/15 08:24:26;;;;;;;10.55;3.70;;;8.30;69.20;;;;;;4998503;28;20030;-54
2021/04/15 08:27:21;;;;;;;8.48;3.78;;;8.50;68.30;;;;;;4997978;28;20486;-52
2021/04/15 08:30:19;;;;;;;10.30;3.88;;;8.50;70.00;;;;;;5003300;28;20503;-54
2021/04/15 08:33:03;;;;;;;11.00;3.85;;;8.70;69.40;;;;;;5010253;28;20038;-51
2021/04/15 08:35:53;;;;;;;11.48;4.40;;;8.70;67.70;;;;;;5003722;28;20053;-50
2021/04/15 08:38:48;;;;;;;11.38;3.83;;;8.60;67.70;;;;;;4999356;28;20120;-52
2021/04/15 08:41:33;;;;;;;8.45;3.90;;;8.50;67.80;;;;;;5017689;28;20140;-50
2021/04/15 08:44:20;;;;;;;10.07;3.88;;;8.50;68.00;;;;;;5003026;28;20138;-50
2021/04/15 08:47:15;;;;;;;10.13;3.65;;;8.50;68.80;;;;;;5007051;28;20041;-52
2021/04/15 08:50:10;;;;;;;11.98;3.53;;;8.70;68.40;;;;;;4997886;28;20514;-52
2021/04/15 08:52:46;;;;;;;9.60;4.03;;;8.70;66.90;;;;;;5003857;28;20052;-52
2021/04/15 08:55:29;;;;;;;8.65;3.67;;;8.70;68.50;;;;;;5005833;28;20038;-49
2021/04/15 08:58:26;;;;;;;11.02;3.78;;;8.40;69.30;;;;;;5005233;28;20038;-48
2021/04/15 09:01:00;;;;;;;10.07;3.78;;;8.50;68.90;;;;;;4999431;28;20056;-53
2021/04/15 09:03:47;;;;;;;9.52;3.92;;;8.50;69.20;;;;;;4997426;28;20058;-53
2021/04/15 09:06:44;;;;;;;12.63;4.20;;;8.50;69.10;;;;;;5002309;28;20077;-51
2021/04/15 09:09:30;;;;;;;10.60;4.15;;;8.50;69.80;;;;;;5009066;28;20177;-53
2021/04/15 09:12:18;;;;;;;14.13;4.35;;;8.40;68.90;;;;;;5004549;28;20042;-48
2021/04/15 09:15:08;;;;;;;15.65;4.10;;;8.50;66.30;;;;;;5002326;28;20109;-51
2021/04/15 09:17:39;;;;;;;8.95;3.60;;;8.60;66.30;;;;;;5007927;28;20038;-52
2021/04/15 09:20:50;;;;;;;8.18;3.38;;;8.70;65.20;;;;;;5005900;28;20054;-51
2021/04/15 09:23:35;;;;;;;6.25;2.75;;;8.90;61.70;;;;;;5011175;28;20046;-52
2021/04/15 09:26:15;;;;;;;7.45;2.90;;;9.00;62.20;;;;;;5003309;28;20046;-47
2021/04/15 09:29:07;;;;;;;8.80;3.42;;;8.90;61.50;;;;;;5007610;28;20046;-49
2021/04/15 09:31:55;;;;;;;9.73;3.30;;;8.80;61.90;;;;;;5001600;28;20038;-48
2021/04/15 09:34:58;;;;;;;7.63;3.30;;;8.70;63.20;;;;;;5005805;28;20359;-50
2021/04/15 09:38:15;;;;;;;6.28;2.88;;;8.80;62.00;;;;;;4998444;28;20030;-53
2021/04/15 09:41:28;;;;;;;11.35;3.50;;;8.80;62.10;;;;;;5002531;28;20042;-51
2021/04/15 09:44:03;;;;;;;9.90;3.50;;;8.90;63.30;;;;;;4997371;28;20498;-48
2021/04/15 09:46:56;;;;;;;8.88;3.25;;;9.10;62.60;;;;;;5004715;28;20492;-49
2021/04/15 09:49:29;;;;;;;13.75;3.92;;;9.20;62.00;;;;;;5006997;28;20129;-51
2021/04/15 09:52:15;;;;;;;7.63;3.33;;;9.40;62.50;;;;;;5009328;28;20057;-52
2021/04/15 09:54:48;;;;;;;8.93;3.28;;;9.50;61.90;;;;;;5004397;28;20042;-52
2021/04/15 09:57:33;;;;;;;4.72;2.90;;;9.60;60.10;;;;;;5005792;28;20038;-51
2021/04/15 10:00:06;;;;;;;8.02;2.92;;;9.60;58.30;;;;;;5003406;28;20069;-53
2021/04/15 10:02:37;;;;;;;9.27;3.20;;;9.50;57.00;;;;;;5003009;28;20034;-52
2021/04/15 10:05:15;;;;;;;8.38;3.38;;;9.40;58.10;;;;;;5009150;28;20030;-54
2021/04/15 10:07:52;;;;;;;6.72;2.90;;;9.40;59.10;;;;;;5005033;28;20095;-53
2021/04/15 10:10:33;;;;;;;8.00;2.60;;;9.40;59.80;;;;;;5004230;28;20073;-51
2021/04/15 10:13:35;;;;;;;7.15;2.65;;;9.60;57.00;;;;;;5000403;28;20054;-52
2021/04/15 10:16:11;;;;;;;10.73;2.70;;;9.80;55.20;;;;;;5005999;28;20042;-52
2021/04/15 10:19:01;;;;;;;6.38;2.53;;;10.00;53.30;;;;;;5006840;28;20053;-52
2021/04/15 10:22:03;;;;;;;9.18;2.50;;;9.80;52.70;;;;;;4992405;28;20085;-53
2021/04/15 10:24:41;;;;;;;7.25;2.38;;;9.70;52.10;;;;;;4993686;28;20046;-53
2021/04/15 10:27:31;;;;;;;8.50;2.40;;;9.60;52.20;;;;;;5001490;28;20069;-48
2021/04/15 10:30:35;;;;;;;4.93;1.98;;;9.70;52.40;;;;;;5006477;28;20037;-51
2021/04/15 10:33:32;;;;;;;8.02;2.70;;;9.70;51.50;;;;;;5003855;28;20072;-50
2021/04/15 10:36:19;;;;;;;2.97;1.70;;;9.60;51.70;;;;;;5013370;28;20088;-51
2021/04/15 10:39:09;;;;;;;7.18;1.90;;;9.60;49.20;;;;;;5003426;28;20486;-49
2021/04/15 10:41:48;;;;;;;6.43;1.73;;;9.50;47.90;;;;;;5012180;28;20073;-51
2021/04/15 10:44:43;;;;;;;9.02;2.65;;;9.50;49.10;;;;;;5003304;28;20124;-53
2021/04/15 10:47:31;;;;;;;4.32;2.10;;;9.40;49.50;;;;;;5004082;28;20045;-54
2021/04/15 10:50:36;;;;;;;5.90;2.30;;;9.30;51.00;;;;;;5009524;28;20034;-51
2021/04/15 10:53:41;;;;;;;5.95;1.90;;;9.20;52.40;;;;;;5006464;28;20533;-50
2021/04/15 10:56:29;;;;;;;3.53;2.00;;;9.30;49.10;;;;;;5001956;28;20065;-50
2021/04/15 10:59:00;;;;;;;4.95;2.30;;;9.30;50.90;;;;;;4997568;28;20047;-51
2021/04/15 11:01:37;;;;;;;6.47;2.00;;;9.30;50.40;;;;;;5009240;28;20140;-52
2021/04/15 11:04:24;;;;;;;7.53;2.30;;;9.50;49.80;;;;;;5011040;28;20099;-53
2021/04/15 11:07:19;;;;;;;5.13;2.22;;;9.70;49.60;;;;;;5007278;28;20155;-55
2021/04/15 11:09:50;;;;;;;5.85;2.10;;;9.70;49.20;;;;;;5009821;28;20750;-53
2021/04/15 11:12:31;;;;;;;7.15;2.30;;;9.70;48.20;;;;;;5006856;28;20682;-54
2021/04/15 11:15:21;;;;;;;3.35;1.83;;;9.70;50.00;;;;;;5002018;28;20042;-53
2021/04/15 11:17:49;;;;;;;4.35;2.20;;;9.60;49.50;;;;;;5000510;28;20050;-52
2021/04/15 11:20:21;;;;;;;8.90;2.15;;;9.70;46.90;;;;;;5003330;28;20052;-51
2021/04/15 11:23:16;;;;;;;4.35;1.85;;;9.70;47.90;;;;;;5009892;28;20041;-52
2021/04/15 11:25:49;;;;;;;4.97;2.08;;;9.80;48.30;;;;;;4997233;28;20053;-49
2021/04/15 11:28:17;;;;;;;3.72;2.22;;;10.10;45.90;;;;;;5002870;28;20042;-53
2021/04/15 11:30:55;;;;;;;4.40;1.98;;;10.20;43.70;;;;;;4996402;28;20038;-49
2021/04/15 11:33:36;;;;;;;5.38;1.92;;;10.20;42.60;;;;;;4999518;28;20038;-51
2021/04/15 11:36:09;;;;;;;4.95;2.40;;;10.00;45.60;;;;;;4996461;28;20042;-51
2021/04/15 11:38:37;;;;;;;6.00;2.10;;;9.90;46.20;;;;;;4998485;28;20046;-50
2021/04/15 11:41:23;;;;;;;3.75;1.95;;;9.90;47.30;;;;;;5001090;28;20045;-52
2021/04/15 11:44:00;;;;;;;5.82;2.15;;;10.20;43.70;;;;;;4997828;28;20057;-51
2021/04/15 11:46:47;;;;;;;3.90;1.90;;;10.40;42.90;;;;;;4999277;28;20438;-52
2021/04/15 11:49:13;;;;;;;6.30;1.92;;;10.40;41.80;;;;;;4996199;28;20037;-51
2021/04/15 11:51:57;;;;;;;3.83;1.95;;;10.30;40.70;;;;;;4999897;28;20061;-52
2021/04/15 11:54:44;;;;;;;4.75;1.90;;;10.20;41.00;;;;;;4994295;28;20464;-52
2021/04/15 11:57:18;;;;;;;6.18;2.10;;;10.00;42.90;;;;;;5006964;28;20441;-50
2021/04/15 12:00:01;;;;;;;4.60;2.08;;;10.00;42.00;;;;;;5004552;28;20080;-53
2021/04/15 12:02:34;;;;;;;;;;;10.00;42.70;;;;;;4999937;28;20100;-49
2021/04/15 12:05:18;;;;;;;4.95;2.10;;;10.10;41.20;;;;;;5003874;28;19918;-52
2021/04/15 12:07:59;;;;;;;6.28;2.50;;;10.00;42.50;;;;;;5000711;28;20049;-50
2021/04/15 12:10:32;;;;;;;4.95;2.20;;;9.90;43.30;;;;;;5001655;28;20180;-51
2021/04/15 12:13:03;;;;;;;;;;;10.10;41.40;;;;;;5003929;28;20038;-53
2021/04/15 12:15:35;;;;;;;3.63;2.08;;;10.20;42.70;;;;;;4995192;28;20325;-50
2021/04/15 12:18:17;;;;;;;6.82;2.22;;;10.40;43.70;;;;;;5003127;28;20038;-49
2021/04/15 12:20:56;;;;;;;5.82;2.03;;;10.70;40.60;;;;;;5007235;28;20064;-49
2021/04/15 12:23:26;;;;;;;4.60;2.40;;;11.00;39.80;;;;;;5003960;28;20046;-52
2021/04/15 12:26:10;;;;;;;5.05;2.00;;;10.90;41.00;;;;;;5011127;28;20041;-53
2021/04/15 12:28:51;;;;;;;5.97;2.38;;;10.80;39.90;;;;;;5003996;28;20038;-50
2021/04/15 12:31:27;;;;;;;3.92;2.08;;;10.70;41.40;;;;;;5000812;28;20450;-50
2021/04/15 12:34:32;;;;;;;6.28;2.60;;;10.60;41.20;;;;;;4998633;28;20128;-52
2021/04/15 12:37:20;;;;;;;4.22;2.13;;;10.40;41.30;;;;;;5003011;28;20038;-49
2021/04/15 12:40:05;;;;;;;8.73;2.60;;;10.20;42.30;;;;;;4995708;28;20038;-51
2021/04/15 12:42:37;;;;;;;3.85;1.83;;;10.30;40.20;;;;;;5006495;28;20101;-51
2021/04/15 12:45:09;;;;;;;3.15;1.80;;;10.30;38.50;;;;;;5006312;28;20136;-51
2021/04/15 12:47:39;;;;;;;3.60;1.63;;;10.20;40.20;;;;;;5004922;28;20049;-53
2021/04/15 12:50:06;;;;;;;4.45;1.67;;;10.30;39.40;;;;;;5000929;28;20120;-51
2021/04/15 12:52:32;;;;;;;4.90;1.88;;;10.20;39.50;;;;;;5009999;28;20417;-50
2021/04/15 12:55:00;;;;;;;5.25;2.33;;;10.40;38.90;;;;;;5007250;28;20038;-53
2021/04/15 12:57:28;;;;;;;3.72;2.22;;;10.60;38.50;;;;;;5007273;28;20042;-50
2021/04/15 12:59:54;;;;;;;7.55;3.63;;;10.70;39.60;;;;;;5008828;28;20120;-50
2021/04/15 13:02:24;;;;;;;3.78;2.42;;;10.80;39.90;;;;;;5003073;28;20456;-51
2021/04/15 13:05:07;;;;;;;2.92;1.90;;;10.80;39.10;;;;;;5000076;28;20529;-49
2021/04/15 13:07:36;;;;;;;7.57;2.17;;;10.80;38.00;;;;;;5006711;28;20045;-53
2021/04/15 13:10:27;;;;;;;3.40;1.98;;;10.70;38.30;;;;;;5004381;28;20038;-50
2021/04/15 13:12:58;;;;;;;4.13;2.17;;;10.70;37.70;;;;;;5007975;28;20050;-54
2021/04/15 13:15:23;;;;;;;4.95;2.08;;;10.50;38.40;;;;;;4999886;28;20120;-52
2021/04/15 13:17:51;;;;;;;4.82;1.98;;;10.50;37.30;;;;;;5004078;28;20133;-53
2021/04/15 13:20:19;;;;;;;3.85;1.80;;;10.60;38.00;;;;;;5004967;28;20041;-53
2021/04/15 13:22:50;;;;;;;4.90;2.00;;;10.70;36.90;;;;;;5009478;28;20057;-53
2021/04/15 13:25:22;;;;;;;4.38;2.17;;;10.80;39.70;;;;;;5001560;28;20038;-52
2021/04/15 13:27:53;;;;;;;4.82;2.08;;;11.00;39.80;;;;;;5005056;28;20505;-53
2021/04/15 13:30:24;;;;;;;4.80;2.00;;;11.20;37.30;;;;;;4994799;28;20078;-51
2021/04/15 13:33:18;;;;;;;4.23;2.20;;;11.30;35.60;;;;;;4991857;28;20066;-54
2021/04/15 13:35:46;;;;;;;4.70;2.08;;;11.50;36.40;;;;;;5000927;28;20413;-51
2021/04/15 13:38:34;;;;;;;4.03;1.90;;;11.60;36.10;;;;;;5002190;28;20046;-51
2021/04/15 13:41:06;;;;;;;6.07;2.00;;;11.70;34.20;;;;;;5009967;28;20052;-53
2021/04/15 13:43:32;;;;;;;5.10;1.70;;;11.80;35.80;;;;;;5006787;28;20039;-51
2021/04/15 13:46:21;;;;;;;4.45;2.45;;;11.70;37.70;;;;;;5008235;28;20080;-50
2021/04/15 13:48:50;;;;;;;5.45;1.80;;;11.70;34.40;;;;;;5002800;28;20044;-50
2021/04/15 13:51:19;;;;;;;4.20;1.80;;;11.50;35.90;;;;;;5004830;28;20045;-53
2021/04/15 13:53:49;;;;;;;3.78;1.90;;;11.40;34.30;;;;;;5010361;28;20049;-51
2021/04/15 13:56:53;;;;;;;4.18;1.92;;;11.20;35.70;;;;;;5006269;28;20038;-54